createdAt,value
2018-06-08T00:00:35.515Z,20.90
2018-06-08T00:03:02.705Z,20.90
2018-06-08T00:05:29.896Z,20.90
2018-06-08T00:07:57.092Z,20.90
2018-06-08T00:10:24.290Z,20.90
2018-06-08T00:15:23.490Z,20.90
2018-06-08T00:17:50.648Z,20.80
2018-06-08T00:20:17.865Z,20.70
2018-06-08T00:22:45.067Z,21.10
2018-06-08T00:25:12.320Z,21.00
2018-06-08T00:27:39.506Z,20.80
2018-06-08T00:30:11.943Z,20.70
2018-06-08T00:32:39.112Z,20.70
2018-06-08T00:35:06.296Z,21.20
2018-06-08T00:37:33.500Z,20.70
2018-06-08T00:40:00.731Z,20.70
2018-06-08T00:42:27.946Z,21.00
2018-06-08T00:44:59.671Z,20.70
2018-06-08T00:47:26.965Z,20.70
2018-06-08T00:49:54.138Z,20.60
2018-06-08T00:52:21.364Z,20.70
2018-06-08T00:54:48.593Z,20.70
2018-06-08T00:57:15.752Z,20.70
2018-06-08T00:59:43.062Z,20.60
2018-06-08T01:02:14.757Z,20.60
2018-06-08T01:04:41.982Z,20.60
2018-06-08T01:07:09.309Z,20.60
2018-06-08T01:09:36.527Z,20.80
2018-06-08T01:12:03.768Z,20.80
2018-06-08T01:14:33.285Z,20.60
2018-06-08T01:17:03.284Z,20.70
2018-06-08T01:19:32.118Z,20.60
2018-06-08T01:21:59.452Z,20.60
2018-06-08T01:24:26.687Z,20.70
2018-06-08T01:26:53.894Z,20.80
2018-06-08T01:29:21.104Z,20.70
2018-06-08T01:31:52.859Z,20.70
2018-06-08T01:34:20.096Z,20.60
2018-06-08T01:36:47.344Z,21.00
2018-06-08T01:39:14.581Z,20.70
2018-06-08T01:41:41.809Z,20.30
2018-06-08T01:44:09.015Z,20.70
2018-06-08T01:49:07.388Z,20.60
2018-06-08T01:51:34.605Z,20.80
2018-06-08T01:54:02.324Z,20.70
2018-06-08T01:56:29.731Z,20.80
2018-06-08T01:58:57.139Z,20.50
2018-06-08T02:01:26.468Z,20.50
2018-06-08T02:03:53.659Z,20.60
2018-06-08T02:06:20.922Z,20.60
2018-06-08T02:08:48.304Z,20.50
2018-06-08T02:11:15.696Z,20.60
2018-06-08T02:13:45.419Z,20.80
2018-06-08T02:16:14.359Z,20.60
2018-06-08T02:18:41.591Z,20.60
2018-06-08T02:21:08.810Z,20.40
2018-06-08T02:23:36.032Z,20.80
2018-06-08T02:26:03.307Z,20.60
2018-06-08T02:28:35.494Z,21.00
2018-06-08T02:31:02.791Z,21.00
2018-06-08T02:33:30.017Z,20.60
2018-06-08T02:35:57.207Z,20.70
2018-06-08T02:38:24.419Z,20.70
2018-06-08T02:40:51.653Z,20.90
2018-06-08T02:43:22.019Z,20.60
2018-06-08T02:45:49.334Z,20.60
2018-06-08T02:48:16.601Z,20.60
2018-06-08T02:50:43.845Z,20.70
2018-06-08T02:53:11.129Z,20.70
2018-06-08T02:55:38.408Z,20.70
2018-06-08T02:58:07.912Z,20.90
2018-06-08T03:00:35.213Z,20.70
2018-06-08T03:03:02.454Z,20.70
2018-06-08T03:05:29.803Z,20.50
2018-06-08T03:07:56.975Z,20.60
2018-06-08T03:10:24.172Z,21.00
2018-06-08T03:12:53.051Z,20.90
2018-06-08T03:15:20.287Z,20.70
2018-06-08T03:17:47.519Z,20.70
2018-06-08T03:20:14.779Z,20.80
2018-06-08T03:22:42.026Z,20.80
2018-06-08T03:25:09.272Z,20.70
2018-06-08T03:27:39.596Z,20.70
2018-06-08T03:30:06.819Z,20.70
2018-06-08T03:32:34.040Z,21.20
2018-06-08T03:35:01.292Z,21.10
2018-06-08T03:37:28.527Z,20.80
2018-06-08T03:39:55.769Z,20.80
2018-06-08T03:42:22.998Z,20.80
2018-06-08T03:44:51.664Z,20.90
2018-06-08T03:47:18.892Z,20.70
2018-06-08T03:49:46.110Z,20.90
2018-06-08T03:52:13.366Z,20.80
2018-06-08T03:54:40.635Z,20.80
2018-06-08T03:57:07.896Z,20.70
2018-06-08T03:59:36.153Z,20.70
2018-06-08T04:02:03.397Z,20.70
2018-06-08T04:04:30.676Z,20.80
2018-06-08T04:06:57.938Z,20.70
2018-06-08T04:09:25.156Z,20.70
2018-06-08T04:11:52.414Z,20.70
2018-06-08T04:14:19.642Z,20.80
2018-06-08T04:16:46.880Z,21.10
2018-06-08T04:19:14.127Z,21.00
2018-06-08T04:21:41.395Z,21.10
2018-06-08T04:24:08.641Z,20.90
2018-06-08T04:26:35.875Z,20.80
2018-06-08T04:29:03.092Z,21.30
2018-06-08T04:33:58.207Z,20.80
2018-06-08T04:36:25.420Z,20.80
2018-06-08T04:38:52.664Z,20.80
2018-06-08T04:41:19.897Z,21.00
2018-06-08T04:43:47.156Z,20.90
2018-06-08T04:46:14.393Z,21.00
2018-06-08T04:48:41.664Z,20.90
2018-06-08T04:51:08.881Z,21.10
2018-06-08T04:53:36.108Z,21.30
2018-06-08T04:56:03.339Z,20.50
2018-06-08T04:58:30.587Z,21.20
2018-06-08T05:00:57.788Z,21.40
2018-06-08T05:03:25.027Z,21.10
2018-06-08T05:05:52.267Z,21.10
2018-06-08T05:08:19.463Z,21.20
2018-06-08T05:10:46.704Z,21.20
2018-06-08T05:13:13.940Z,21.20
2018-06-08T05:15:41.199Z,21.00
2018-06-08T05:20:40.604Z,21.30
2018-06-08T05:23:07.885Z,21.30
2018-06-08T05:25:35.091Z,21.30
2018-06-08T05:28:02.436Z,21.50
2018-06-08T05:30:35.004Z,21.60
2018-06-08T05:33:02.315Z,21.30
2018-06-08T05:35:29.508Z,21.60
2018-06-08T05:37:56.734Z,21.40
2018-06-08T05:40:23.928Z,21.70
2018-06-08T05:42:51.170Z,21.70
2018-06-08T05:45:23.386Z,21.90
2018-06-08T05:47:50.622Z,21.50
2018-06-08T05:50:17.823Z,21.50
2018-06-08T05:52:45.056Z,21.60
2018-06-08T05:55:12.282Z,21.60
2018-06-08T05:57:39.598Z,21.60
2018-06-08T06:02:37.223Z,21.70
2018-06-08T06:05:04.519Z,21.70
2018-06-08T06:07:31.720Z,21.70
2018-06-08T06:09:58.988Z,22.10
2018-06-08T06:12:26.222Z,21.80
2018-06-08T06:14:54.447Z,22.00
2018-06-08T06:17:24.735Z,22.00
2018-06-08T06:19:51.975Z,21.90
2018-06-08T06:22:19.229Z,21.90
2018-06-08T06:24:46.483Z,22.00
2018-06-08T06:27:13.684Z,22.30
2018-06-08T06:29:40.916Z,22.10
2018-06-08T06:32:09.603Z,22.10
2018-06-08T06:34:36.800Z,22.20
2018-06-08T06:37:04.044Z,22.30
2018-06-08T06:39:31.251Z,22.50
2018-06-08T06:41:58.484Z,22.50
2018-06-08T06:44:25.784Z,22.40
2018-06-08T06:46:52.988Z,22.50
2018-06-08T06:49:20.799Z,22.60
2018-06-08T06:51:48.052Z,22.70
2018-06-08T06:54:15.249Z,23.00
2018-06-08T06:56:42.560Z,22.80
2018-06-08T06:59:09.989Z,23.30
2018-06-08T07:01:37.254Z,23.10
2018-06-08T07:04:04.478Z,23.20
2018-06-08T07:06:31.712Z,23.20
2018-06-08T07:08:59.019Z,23.10
2018-06-08T07:11:26.252Z,23.20
2018-06-08T07:13:53.495Z,23.50
2018-06-08T07:16:20.768Z,23.00
2018-06-08T07:18:48.038Z,23.00
2018-06-08T07:21:15.421Z,22.90
2018-06-08T07:23:42.652Z,22.80
2018-06-08T07:26:09.913Z,22.70
2018-06-08T07:28:37.160Z,22.70
2018-06-08T07:31:04.520Z,22.60
2018-06-08T07:33:31.743Z,22.50
2018-06-08T07:35:58.988Z,22.30
2018-06-08T07:38:26.207Z,22.60
2018-06-08T07:40:53.433Z,22.20
2018-06-08T07:43:20.806Z,22.40
2018-06-08T07:45:48.027Z,22.00
2018-06-08T07:48:15.468Z,22.50
2018-06-08T07:50:42.705Z,21.90
2018-06-08T07:53:09.961Z,22.20
2018-06-08T07:55:37.163Z,22.00
2018-06-08T07:58:04.447Z,22.40
2018-06-08T08:00:31.640Z,22.00
2018-06-08T08:02:58.819Z,22.10
2018-06-08T08:05:26.125Z,22.10
2018-06-08T08:07:53.331Z,22.00
2018-06-08T08:10:20.540Z,22.10
2018-06-08T08:13:01.279Z,22.10
2018-06-08T08:15:28.669Z,21.90
2018-06-08T08:17:55.941Z,21.60
2018-06-08T08:20:23.141Z,21.40
2018-06-08T08:22:50.366Z,21.30
2018-06-08T08:25:17.612Z,21.20
2018-06-08T08:27:44.871Z,21.10
2018-06-08T08:30:12.076Z,20.90
2018-06-08T08:32:39.295Z,20.90
2018-06-08T08:35:06.592Z,20.70
2018-06-08T08:37:33.856Z,20.60
2018-06-08T08:40:01.071Z,20.50
2018-06-08T08:42:28.444Z,20.40
2018-06-08T08:44:55.696Z,20.40
2018-06-08T08:47:23.112Z,20.30
2018-06-08T08:49:50.400Z,20.30
2018-06-08T08:52:17.790Z,20.30
2018-06-08T08:54:45.019Z,20.30
2018-06-08T08:57:12.381Z,20.40
2018-06-08T08:59:39.652Z,20.10
2018-06-08T09:02:06.896Z,20.30
2018-06-08T09:04:34.128Z,20.60
2018-06-08T09:07:01.416Z,20.30
2018-06-08T09:09:28.624Z,20.60
2018-06-08T09:11:55.840Z,20.40
2018-06-08T09:14:23.060Z,20.50
2018-06-08T09:16:50.293Z,20.80
2018-06-08T09:19:17.501Z,20.80
2018-06-08T09:21:44.736Z,21.30
2018-06-08T09:24:12.605Z,21.30
2018-06-08T09:26:39.977Z,21.30
2018-06-08T09:29:07.224Z,21.30
2018-06-08T09:31:34.437Z,21.50
2018-06-08T09:34:01.836Z,21.50
2018-06-08T09:36:29.052Z,21.50
2018-06-08T09:38:56.340Z,22.00
2018-06-08T09:41:23.547Z,21.90
2018-06-08T09:43:50.817Z,22.00
2018-06-08T09:46:18.085Z,22.00
2018-06-08T09:48:45.284Z,21.60
2018-06-08T09:51:12.524Z,21.70
2018-06-08T09:53:39.758Z,21.90
2018-06-08T09:56:07.028Z,21.50
2018-06-08T09:58:34.253Z,21.50
2018-06-08T10:01:01.517Z,21.50
2018-06-08T10:05:55.976Z,21.50
2018-06-08T10:08:23.212Z,21.50
2018-06-08T10:10:50.459Z,21.40
2018-06-08T10:13:17.661Z,21.40
2018-06-08T10:15:44.864Z,21.40
2018-06-08T10:18:12.099Z,21.40
2018-06-08T10:20:39.295Z,21.40
2018-06-08T10:23:06.554Z,21.70
2018-06-08T10:25:33.830Z,21.60
2018-06-08T10:28:01.064Z,21.40
2018-06-08T10:30:28.256Z,21.30
2018-06-08T10:32:55.477Z,21.30
2018-06-08T10:35:22.747Z,21.60
2018-06-08T10:37:49.960Z,21.60
2018-06-08T10:40:17.190Z,21.30
2018-06-08T10:42:44.434Z,21.70
2018-06-08T10:45:11.663Z,21.00
2018-06-08T10:47:38.909Z,21.40
2018-06-08T10:50:06.230Z,21.80
2018-06-08T10:52:34.627Z,21.20
2018-06-08T10:55:01.844Z,22.00
2018-06-08T10:57:30.247Z,21.60
2018-06-08T10:59:57.904Z,21.70
2018-06-08T11:02:29.684Z,21.80
2018-06-08T11:04:56.867Z,22.20
2018-06-08T11:07:24.048Z,22.00
2018-06-08T11:09:51.258Z,22.20
2018-06-08T11:12:18.463Z,22.30
2018-06-08T11:14:45.675Z,22.30
2018-06-08T11:17:12.928Z,22.40
2018-06-08T11:19:40.913Z,22.40
2018-06-08T11:22:08.444Z,22.50
2018-06-08T11:24:35.663Z,22.80
2018-06-08T11:27:02.867Z,22.90
2018-06-08T11:29:30.120Z,22.80
2018-06-08T11:31:57.312Z,22.90
2018-06-08T11:34:27.938Z,22.70
2018-06-08T11:36:55.180Z,22.80
2018-06-08T11:39:24.517Z,22.80
2018-06-08T11:41:52.028Z,22.80
2018-06-08T11:44:19.267Z,23.30
2018-06-08T11:46:46.516Z,22.80
2018-06-08T11:49:13.711Z,22.80
2018-06-08T11:51:40.968Z,22.90
2018-06-08T11:54:08.160Z,23.10
2018-06-08T11:56:35.348Z,23.30
2018-06-08T11:59:02.652Z,23.30
2018-06-08T12:01:29.893Z,23.30
2018-06-08T12:03:57.076Z,23.60
2018-06-08T12:06:24.282Z,23.40
2018-06-08T12:08:51.466Z,23.50
2018-06-08T12:11:18.645Z,23.50
2018-06-08T12:13:45.892Z,23.70
2018-06-08T12:16:13.144Z,23.40
2018-06-08T12:18:40.340Z,23.40
2018-06-08T12:21:07.608Z,23.90
2018-06-08T12:23:35.036Z,23.40
2018-06-08T12:26:02.343Z,23.70
2018-06-08T12:28:29.563Z,23.50
2018-06-08T12:30:56.790Z,23.50
2018-06-08T12:33:24.004Z,23.40
2018-06-08T12:35:51.244Z,23.60
2018-06-08T12:38:18.472Z,23.50
2018-06-08T12:40:45.701Z,23.70
2018-06-08T12:43:13.010Z,23.90
2018-06-08T12:45:40.736Z,23.80
2018-06-08T12:48:07.989Z,24.10
2018-06-08T12:50:35.225Z,23.80
2018-06-08T12:53:02.444Z,24.00
2018-06-08T12:55:29.685Z,23.90
2018-06-08T12:57:56.900Z,24.00
2018-06-08T13:00:24.125Z,23.90
2018-06-08T13:02:51.426Z,24.00
2018-06-08T13:05:18.725Z,24.00
2018-06-08T13:07:45.961Z,24.10
2018-06-08T13:10:13.203Z,24.10
2018-06-08T13:12:40.431Z,24.20
2018-06-08T13:15:07.654Z,24.40
2018-06-08T13:17:34.839Z,24.50
2018-06-08T13:20:02.170Z,24.20
2018-06-08T13:22:29.494Z,24.10
2018-06-08T13:27:23.984Z,24.20
2018-06-08T13:29:51.239Z,24.20
2018-06-08T13:32:18.476Z,24.30
2018-06-08T13:34:45.740Z,24.70
2018-06-08T13:37:13.025Z,24.30
2018-06-08T13:39:40.550Z,23.90
2018-06-08T13:42:07.726Z,24.60
2018-06-08T13:44:34.959Z,24.80
2018-06-08T13:47:02.296Z,24.90
2018-06-08T13:49:29.524Z,24.60
2018-06-08T13:51:56.736Z,24.70
2018-06-08T13:54:23.981Z,25.10
2018-06-08T13:56:51.256Z,24.90
2018-06-08T13:59:18.476Z,25.00
2018-06-08T14:01:46.312Z,25.10
2018-06-08T14:04:13.544Z,25.30
2018-06-08T14:06:40.804Z,25.10
2018-06-08T14:09:08.106Z,25.10
2018-06-08T14:11:35.381Z,25.10
2018-06-08T14:14:02.656Z,25.10
2018-06-08T14:16:29.892Z,25.10
2018-06-08T14:18:57.084Z,24.90
2018-06-08T14:21:24.393Z,25.40
2018-06-08T14:23:51.798Z,25.30
2018-06-08T14:26:19.021Z,25.30
2018-06-08T14:28:46.332Z,25.40
2018-06-08T14:31:13.573Z,25.30
2018-06-08T14:33:40.793Z,25.60
2018-06-08T14:36:08.004Z,25.30
2018-06-08T14:38:35.244Z,25.60
2018-06-08T14:41:02.441Z,25.30
2018-06-08T14:43:29.669Z,25.30
2018-06-08T14:45:56.867Z,25.50
2018-06-08T14:48:24.097Z,25.30
2018-06-08T14:50:51.300Z,25.40
2018-06-08T14:53:18.540Z,25.20
2018-06-08T14:55:46.204Z,25.40
2018-06-08T15:00:40.752Z,25.20
2018-06-08T15:03:08.068Z,25.20
2018-06-08T15:05:35.774Z,25.50
2018-06-08T15:08:03.205Z,25.10
2018-06-08T15:10:30.415Z,25.10
2018-06-08T15:12:57.615Z,25.30
2018-06-08T15:15:24.823Z,25.10
2018-06-08T15:17:52.056Z,25.20
2018-06-08T15:20:19.264Z,25.10
2018-06-08T15:22:46.565Z,25.10
2018-06-08T15:25:13.785Z,24.80
2018-06-08T15:27:41.004Z,24.50
2018-06-08T15:30:08.238Z,25.10
2018-06-08T15:32:35.456Z,25.30
2018-06-08T15:35:02.728Z,25.10
2018-06-08T15:37:29.992Z,25.30
2018-06-08T15:39:57.212Z,24.90
2018-06-08T15:42:24.488Z,25.00
2018-06-08T15:44:51.872Z,25.00
2018-06-08T15:47:19.108Z,25.00
2018-06-08T15:49:46.484Z,25.00
2018-06-08T15:52:13.779Z,25.30
2018-06-08T15:54:41.011Z,25.10
2018-06-08T15:57:08.284Z,25.10
2018-06-08T15:59:38.204Z,25.10
2018-06-08T16:02:05.599Z,25.10
2018-06-08T16:04:32.896Z,25.10
2018-06-08T16:07:00.121Z,25.10
2018-06-08T16:09:27.320Z,25.30
2018-06-08T16:11:54.544Z,25.10
2018-06-08T16:14:23.517Z,25.10
2018-06-08T16:16:50.757Z,25.00
2018-06-08T16:19:17.980Z,25.10
2018-06-08T16:21:45.376Z,24.70
2018-06-08T16:24:12.673Z,25.10
2018-06-08T16:26:39.985Z,25.20
2018-06-08T16:29:12.277Z,25.10
2018-06-08T16:31:39.525Z,25.20
2018-06-08T16:34:06.770Z,25.50
2018-06-08T16:36:34.016Z,25.10
2018-06-08T16:39:01.204Z,25.40
2018-06-08T16:41:28.432Z,25.10
2018-06-08T16:44:00.453Z,25.70
2018-06-08T16:46:27.636Z,25.20
2018-06-08T16:48:54.853Z,25.50
2018-06-08T16:51:22.083Z,25.10
2018-06-08T16:53:49.312Z,25.40
2018-06-08T16:56:16.588Z,25.20
2018-06-08T16:58:43.899Z,25.10
2018-06-08T17:01:11.119Z,25.20
2018-06-08T17:03:38.324Z,25.10
2018-06-08T17:06:05.829Z,25.10
2018-06-08T17:08:33.068Z,25.10
2018-06-08T17:11:00.327Z,25.50
2018-06-08T17:13:27.588Z,24.90
2018-06-08T17:15:54.852Z,25.10
2018-06-08T17:18:22.100Z,25.10
2018-06-08T17:20:49.340Z,25.10
2018-06-08T17:23:16.600Z,25.10
2018-06-08T17:25:43.881Z,25.20
2018-06-08T17:28:11.130Z,25.10
2018-06-08T17:30:38.365Z,25.10
2018-06-08T17:33:05.672Z,25.20
2018-06-08T17:35:32.919Z,25.30
2018-06-08T17:38:00.476Z,25.00
2018-06-08T17:42:54.951Z,24.90
2018-06-08T17:45:22.281Z,24.90
2018-06-08T17:47:49.608Z,24.80
2018-06-08T17:50:18.888Z,24.80
2018-06-08T17:52:46.181Z,24.80
2018-06-08T17:55:13.506Z,24.70
2018-06-08T17:57:41.492Z,24.70
2018-06-08T18:00:08.948Z,24.60
2018-06-08T18:02:36.240Z,24.60
2018-06-08T18:05:06.486Z,24.60
2018-06-08T18:07:33.720Z,24.50
2018-06-08T18:10:00.936Z,24.40
2018-06-08T18:12:28.167Z,24.40
2018-06-08T18:14:55.408Z,24.40
2018-06-08T18:17:22.649Z,24.40
2018-06-08T18:19:54.600Z,24.40
2018-06-08T18:22:21.824Z,24.40
2018-06-08T18:24:49.124Z,24.40
2018-06-08T18:27:16.422Z,24.30
2018-06-08T18:29:43.646Z,24.10
2018-06-08T18:32:10.879Z,23.90
2018-06-08T18:34:41.249Z,24.20
2018-06-08T18:37:08.481Z,24.10
2018-06-08T18:39:35.724Z,24.10
2018-06-08T18:42:03.009Z,24.10
2018-06-08T18:44:30.324Z,24.10
2018-06-08T18:46:57.616Z,24.30
2018-06-08T18:49:28.013Z,24.00
2018-06-08T18:51:55.256Z,24.00
2018-06-08T18:54:22.585Z,23.90
2018-06-08T18:56:49.821Z,23.90
2018-06-08T18:59:17.072Z,23.90
2018-06-08T19:01:44.456Z,23.80
2018-06-08T19:04:16.470Z,24.20
2018-06-08T19:06:43.812Z,23.70
2018-06-08T19:09:11.066Z,23.90
2018-06-08T19:11:38.320Z,24.00
2018-06-08T19:14:05.631Z,23.70
2018-06-08T19:16:33.437Z,23.80
2018-06-08T19:19:00.737Z,23.70
2018-06-08T19:21:29.626Z,23.70
2018-06-08T19:23:56.896Z,23.70
2018-06-08T19:26:24.164Z,23.70
2018-06-08T19:28:51.435Z,23.80
2018-06-08T19:31:18.720Z,23.60
2018-06-08T19:33:45.942Z,22.90
2018-06-08T19:36:17.984Z,23.80
2018-06-08T19:38:45.302Z,23.50
2018-06-08T19:41:12.558Z,23.50
2018-06-08T19:43:39.772Z,23.50
2018-06-08T19:46:07.015Z,23.50
2018-06-08T19:48:34.240Z,23.70
2018-06-08T19:51:01.487Z,23.40
2018-06-08T19:53:32.068Z,23.30
2018-06-08T19:55:59.334Z,23.30
2018-06-08T19:58:26.580Z,23.30
2018-06-08T20:00:53.773Z,23.30
2018-06-08T20:03:21.024Z,23.30
2018-06-08T20:05:48.285Z,23.20
2018-06-08T20:08:15.532Z,23.20
2018-06-08T20:10:42.898Z,23.30
2018-06-08T20:13:10.147Z,23.40
2018-06-08T20:15:37.408Z,23.10
2018-06-08T20:18:04.705Z,23.10
2018-06-08T20:20:31.936Z,23.10
2018-06-08T20:22:59.185Z,23.40
2018-06-08T20:25:26.422Z,23.10
2018-06-08T20:27:53.788Z,23.00
2018-06-08T20:30:21.122Z,23.00
2018-06-08T20:32:48.353Z,23.00
2018-06-08T20:35:15.593Z,22.90
2018-06-08T20:37:42.849Z,22.90
2018-06-08T20:40:10.583Z,23.20
2018-06-08T20:42:37.840Z,23.20
2018-06-08T20:45:05.128Z,22.80
2018-06-08T20:47:32.413Z,22.60
2018-06-08T20:49:59.704Z,22.80
2018-06-08T20:52:26.913Z,22.80
2018-06-08T20:54:54.298Z,22.80
2018-06-08T21:02:20.454Z,22.70
2018-06-08T21:04:47.644Z,23.00
2018-06-08T21:07:14.956Z,22.60
2018-06-08T21:09:42.235Z,22.60
2018-06-08T21:12:09.456Z,22.70
2018-06-08T21:14:36.832Z,22.50
2018-06-08T21:17:04.084Z,22.70
2018-06-08T21:19:31.302Z,22.50
2018-06-08T21:21:58.528Z,22.50
2018-06-08T21:24:25.707Z,22.40
2018-06-08T21:26:52.937Z,22.40
2018-06-08T21:29:20.148Z,22.60
2018-06-08T21:31:47.422Z,22.40
2018-06-08T21:34:14.668Z,22.30
2018-06-08T21:36:41.888Z,22.30
2018-06-08T21:39:09.184Z,22.30
2018-06-08T21:41:36.559Z,22.40
2018-06-08T21:44:03.671Z,22.20
2018-06-08T21:46:30.889Z,22.40
2018-06-08T21:48:58.156Z,22.40
2018-06-08T21:51:25.344Z,22.20
2018-06-08T21:53:52.590Z,22.10
2018-06-08T21:56:20.097Z,21.80
2018-06-08T21:58:47.336Z,22.10
2018-06-08T22:01:14.815Z,22.30
2018-06-08T22:03:42.244Z,21.90
2018-06-08T22:06:09.696Z,22.00
2018-06-08T22:08:37.135Z,22.00
2018-06-08T22:11:04.617Z,22.50
2018-06-08T22:15:59.519Z,22.00
2018-06-08T22:18:26.976Z,22.00
2018-06-08T22:20:54.540Z,22.00
2018-06-08T22:23:22.106Z,22.00
2018-06-08T22:25:49.568Z,22.00
2018-06-08T22:28:17.006Z,22.30
2018-06-08T22:30:44.429Z,22.10
2018-06-08T22:33:11.885Z,22.00
2018-06-08T22:35:39.300Z,22.00
2018-06-08T22:38:06.708Z,22.40
2018-06-08T22:40:34.165Z,22.30
2018-06-08T22:43:01.734Z,22.40
2018-06-08T22:47:56.516Z,22.00
2018-06-08T22:50:23.927Z,21.80
2018-06-08T22:52:51.391Z,22.30
2018-06-08T22:55:18.896Z,21.90
2018-06-08T22:57:46.432Z,22.10
2018-06-08T23:00:15.352Z,21.90
2018-06-08T23:02:42.866Z,22.10
2018-06-08T23:07:37.705Z,22.00
2018-06-08T23:10:05.085Z,22.00
2018-06-08T23:12:32.517Z,22.00
2018-06-08T23:14:59.911Z,21.90
2018-06-08T23:17:27.286Z,22.20
2018-06-08T23:19:54.704Z,21.90
2018-06-08T23:22:22.072Z,22.20
2018-06-08T23:24:49.555Z,22.00
2018-06-08T23:27:16.992Z,22.40
2018-06-08T23:29:45.193Z,22.30
2018-06-08T23:32:12.624Z,22.10
2018-06-08T23:37:07.452Z,22.00
2018-06-08T23:39:34.924Z,22.40
2018-06-08T23:42:02.358Z,22.10
2018-06-08T23:44:29.780Z,21.90
2018-06-08T23:46:57.216Z,21.90
2018-06-08T23:49:24.653Z,22.30
2018-06-08T23:51:52.052Z,21.80
2018-06-08T23:54:19.441Z,21.90
2018-06-08T23:56:46.881Z,21.90
2018-06-08T23:59:14.265Z,22.00
